Columbus, Ohio
Traffic Map
Current Weather Conditions
Columbus, Ohio
Clear
Clear
-9°
Feels Like: -9°
Wind Chill: -9° Ceiling: Unl
Heat Index: -9° Visibility: 10mi
Dew Point: -13° Wind: 0mph
Humidity: 77% Direction: ° ()
Pressure: 30.44in Gusts: 0mph
Raw Report DataKCMH 310351Z 00000KT 10SM CLR M09/M13 A3044 RMK AO2 SLP320 T10941128
Traffic Incident Summary
Active as of:
Severity:
Category:
InformationThere was an issue retrieving the traffic information for this location. Please try a different location or try again shortly.
Advertisements
Track Severe Weather on mobile